Nearby METAR Reports

METAR is the scheduled surface weather observation taken hourly at civil and military airport locations.

METAR is an acronym from the French language and roughly translates as Aviation Routine Weather Report.

 

EGPL - Benbecula Island, United Kingdom
Distance from station: WNW 41mi, 66km
Updated: 17/09/2019 11:20
Few Clouds
Few Clouds
 Wind from NW
Wind: NW 7 mph , 11 km/h
Temperature: 13°C
Dew Point: 5°C
Humidity: 59%
Barometer: 1027 hPa
Clouds: Few Clouds
Visibility: 6 miles , 10 km
Cloud details: Few Clouds 914 m
2019/09/17 10:20 EGPL 171020Z 31006KT 9999 FEW030 13/05 Q1027
EGPU - Tiree Island, United Kingdom
Distance from station: SSW 56mi, 90km
Updated: 17/09/2019 11:20
Clear
Clear
 Wind from NNW
Wind: NNW 8 mph , 13 km/h
Temperature: 13°C
Dew Point: 6°C
Humidity: 63%
Barometer: 1027 hPa
Summary: Clear
Visibility: greater than 7 miles , 10 km
2019/09/17 10:20 EGPU 171020Z 34007KT 320V020 CAVOK 13/06 Q1027
 
EGEO - Oban Airport, United Kingdom
Distance from station: SE 65mi, 105km
Updated: 16/09/2019 15:50
NOT Current
Mostly cloudy
Mostly cloudy
 Wind from W
Wind: W 20 mph , 31 km/h
Temperature: 14°C
Dew Point: 9°C
Humidity: 72%
Barometer: 1022 hPa
Clouds: Mostly cloudy
Visibility: 6 miles , 10 km
Cloud details: Mostly cloudy 945 m
2019/09/16 14:50 EGEO 161450Z 28017KT 9999 BKN031 14/09 Q1022
EGPO - Stornoway, United Kingdom
Distance from station: 0 66mi, 106km
Updated: 17/09/2019 11:20
Few Clouds
Few Clouds
 Wind from NW
Wind: NW 13 mph , 20 km/h
Temperature: 12°C
Dew Point: 4°C
Humidity: 58%
Barometer: 1026 hPa
Clouds: Few Clouds
Visibility: 6 miles , 10 km
Cloud details: Few Clouds 853 m
2019/09/17 10:20 EGPO 171020Z 31011KT 9999 FEW028 12/04 Q1026
 
EGPE - Inverness/Dalcro, United Kingdom
Distance from station: ENE 88mi, 141km
Updated: 17/09/2019 11:20
Partly cloudy
Partly cloudy
 Wind from WNW
Wind: WNW 8 mph , 13 km/h
Temperature: 11°C
Dew Point: 5°C
Humidity: 67%
Barometer: 1026 hPa
Clouds: Partly cloudy
Visibility: 6 miles , 10 km
Cloud details: Few Clouds 762 m
Partly cloudy 1219 m
2019/09/17 10:20 EGPE 171020Z 29007KT 9999 FEW025 SCT040 11/05 Q1026
EGQA - Tain Range (saws, United Kingdom
Distance from station: ENE 97mi, 156km
Updated: 17/09/2019 10:50
Few Clouds
Few Clouds
 Wind from W
Wind: W 15 mph , 24 km/h
Clouds: Few Clouds
Visibility: 6 miles , 10 km
Cloud details: Few Clouds 1219 m
2019/09/17 09:50 EGQA 170950Z 28013KT 9999 FEW040 11/// Q1025 RMK BLU
 
EGQK - Kinloss Raf, United Kingdom
Distance from station: ENE 107mi, 171km
Updated: 17/09/2019 10:50
Mostly cloudy
Mostly cloudy
 Wind from WNW
Wind: WNW 14 mph , 22 km/h
Temperature: 11°C
Dew Point: 6°C
Humidity: 72%
Barometer: 1025 hPa
Clouds: Mostly cloudy
Visibility: 6 miles , 10 km
Cloud details: Few Clouds 1128 m
Mostly cloudy 1280 m
Mostly cloudy 1524 m
2019/09/17 09:50 EGQK 170950Z AUTO 29012KT 9999 FEW037/// BKN042/// BKN050/// 11/06 Q1025
EGPI - Islay/Port Ellen, United Kingdom
Distance from station: S 110mi, 177km
Updated: 17/09/2019 11:20
Few Clouds
Few Clouds
 Wind from NNW
Wind: NNW 10 mph , 17 km/h
Temperature: 13°C
Dew Point: 7°C
Humidity: 67%
Barometer: 1027 hPa
Clouds: Few Clouds
Visibility: 6 miles , 10 km
Cloud details: Few Clouds 1189 m
2019/09/17 10:20 EGPI 171020Z 33009KT 9999 FEW039 13/07 Q1027
 
EGQS - Lossiemouth Raf, United Kingdom
Distance from station: ENE 117mi, 188km
Updated: 17/09/2019 11:20
Few Clouds
Few Clouds
 Wind from W
Wind: W 18 mph , 30 km/h
Temperature: 12°C
Dew Point: 6°C
Humidity: 67%
Barometer: 1025 hPa
Clouds: Few Clouds
Visibility: 6 miles , 10 km
Cloud details: Few Clouds 914 m
2019/09/17 10:20 EGQS 171020Z 28016KT 9999 FEW030 12/06 Q1025 NOSIG RMK BLU BLU
EGPF - Glasgow Airport, United Kingdom
Distance from station: SE 121mi, 195km
Updated: 17/09/2019 11:20
Clear
Clear
 Wind from WNW
Wind: WNW 15 mph , 24 km/h
Temperature: 13°C
Dew Point: 4°C
Humidity: 55%
Barometer: 1027 hPa
Clouds: Clear
Visibility: 6 miles , 10 km
2019/09/17 10:20 EGPF 171020Z AUTO 29013KT 9999 NCD 13/04 Q1027
 
EGEC - Campbeltown, United Kingdom
Distance from station: SSE 129mi, 207km
Updated: 17/09/2019 11:20
Few Clouds
Few Clouds
 Wind from NW
Wind: NW 13 mph , 20 km/h
Temperature: 13°C
Dew Point: 7°C
Humidity: 67%
Barometer: 1027 hPa
Clouds: Few Clouds
Visibility: 6 miles , 10 km
Cloud details: Few Clouds 914 m
2019/09/17 10:20 EGEC 171020Z 32011KT 9999 FEW030 13/07 Q1027
EGPN - Dundee/Riverside, United Kingdom
Distance from station: ESE 137mi, 221km
Updated: 17/09/2019 11:20
Few Clouds
Few Clouds
 Wind from WNW
Wind: WNW 14 mph , 22 km/h
Temperature: 14°C
Dew Point: 4°C
Humidity: 51%
Barometer: 1025 hPa
Clouds: Few Clouds
Visibility: 6 miles , 10 km
Cloud details: Few Clouds 1219 m
2019/09/17 10:20 EGPN 171020Z 29012KT 9999 FEW040 14/04 Q1025
 
EGPK - Prestwick(Civ/Na, United Kingdom
Distance from station: SSE 139mi, 224km
Updated: 17/09/2019 11:20
Few Clouds
Few Clouds
 Wind from W
Wind: W 12 mph , 19 km/h
Temperature: 14°C
Dew Point: 7°C
Humidity: 63%
Barometer: 1027 hPa
Clouds: Few Clouds
Visibility: 6 miles , 10 km
Cloud details: Few Clouds 914 m
2019/09/17 10:20 EGPK 171020Z 28010KT 9999 FEW030 14/07 Q1027
EGQL - Leuchars Raf, United Kingdom
Distance from station: ESE 145mi, 233km
Updated: 17/09/2019 10:50
Clear
Clear
 Wind from NW
Wind: NW 12 mph , 19 km/h, Gust: 23 mph , 37 km/h
Temperature: 13°C
Dew Point: 4°C
Humidity: 55%
Barometer: 1025 hPa
Summary: Clear
Visibility: greater than 7 miles , 10 km
2019/09/17 09:50 EGQL 170950Z 32010G20KT CAVOK 13/04 Q1025 BLU
 
EGPH - Edinburgh Airpor, United Kingdom
Distance from station: SE 145mi, 234km
Updated: 17/09/2019 11:20
Few Clouds
Few Clouds
 Wind from WNW
Wind: WNW 7 mph , 11 km/h
Temperature: 13°C
Dew Point: 4°C
Humidity: 55%
Barometer: 1026 hPa
Clouds: Few Clouds
Visibility: 6 miles , 10 km
Cloud details: Few Clouds 1341 m
2019/09/17 10:20 EGPH 171020Z 29006KT 250V350 9999 FEW044 13/04 Q1026
EGPC - Wick, United Kingdom
Distance from station: NE 146mi, 234km
Updated: 17/09/2019 11:20
Partly cloudy
Partly cloudy
 Wind from NNW
Wind: NNW 22 mph , 35 km/h
Temperature: 11°C
Dew Point: 5°C
Humidity: 67%
Barometer: 1024 hPa
Clouds: Partly cloudy
Visibility: 6 miles , 10 km
Cloud details: Partly cloudy 914 m
2019/09/17 10:20 EGPC 171020Z 33019KT 9999 SCT030 11/05 Q1024

-

free counters
QR Code Twitter Scottish Weather Network UK Weather Network
Argyll House B & B

Argyll House B & B is situated in North West Skye and is the perfect base to see all that the Isle of Skye has to offer. We are just about full for 2019. Bookings are been taken for 2020.